West Essex Park Conservancy

Temperature/Humidity/Waterlevel monitor

05-22 11:55  Fd   Fr   %    Z  mov    seq 
05-19 03:33:10,   34, 11, 1548.6   0   6395
05-19 03:13:14,   34,  0, 1375.2 255  32772
05-19 02:49:07,   34,  0, 1581.0   0   6395
05-19 02:25:04,   34,  0, 1602.0   0   7419
05-19 02:00:24,   34, 73, 1467.2 255  30724
05-19 01:39:55,   34, 61, 1509.2 255  31748
05-19 01:19:28,   34, 46, 1557.0 255  30724
05-19 00:59:01,   34, 34, 1475.2   0   6395
05-19 00:38:33,   34, 22, 1557.6 255  30723
05-19 00:18:06,   34, 10, 1446.8 255  31748
05-18 23:57:40,   34, 97, 1309.3 255  31748
05-18 23:37:11,   34, 85, 1238.2 255  28675
05-18 23:16:43,   34, 74, 1148.1   0   6395
05-18 22:56:14,   34, 62, 1209.7 255  30723
05-18 22:35:46,   34, 46, 1155.5   0   5371
05-18 22:15:17,   34, 35, 1166.8   0   5371
05-18 21:54:49,   34, 23, 1340.2 255  31747
05-18 21:34:21,   34, 11, 1156.2   0   6395
05-18 21:14:24,   34,  0, 1095.8   0   7419
05-18 20:49:46,   34, 11, 1144.2 255  31747
05-18 20:29:51,   34,  0, 945.4   0   4347
05-18 20:05:13,   34, 97, 797.4   0   7419
05-18 19:44:47,   34, 85, 694.8   0   7419
05-18 19:24:25,   34, 74, 560.2   0   8444
05-18 19:04:00,   34, 62, 730.2 255  29699
05-18 18:43:37,   34, 46, 396.6   0  10492
05-18 18:23:12,   34, 35, 371.0   0  11516
05-18 18:02:44,   34, 23, 660.6 255  31747
05-18 17:42:17,   34, 11, 369.3   0  13564
05-18 17:22:16,   34,  0, 661.8 255  34819
05-18 16:57:38,   34, 62, 393.4   0  12540
05-18 16:37:10,   34, 46, 407.5   0  13564
05-18 16:16:41,   34, 35, 436.1   0  14588
05-18 15:56:10,   34, 23, 714.4 255  30723
05-18 15:35:40,   34, 11, 722.0 255  29699
05-18 15:15:38,   34,  0, 482.9   0  12540
05-18 14:50:56,   34, 96, 755.0 255  30723
05-18 14:30:26,   34, 85, 764.1 255  31747
05-18 14:09:56,   34, 73, 772.5 255  31747
05-18 13:49:26,   34, 61, 789.4 255  30723

Go to the West Essex Park Conservancy birding log .